Time;durP1;ratioP1;P1;durP2;ratioP2;P2;SDS_P1;SDS_P2;PMS_P1;PMS_P2;Temp;Humidity;BMP_temperature;BMP_pressure;BME280_temperature;BME280_humidity;BME280_pressure;Samples;Min_cycle;Max_cycle;Signal;HPM_P1;HPM_P2
2021/04/20 00:00:59;259580.00;0.87;448.43;0.00;0.00;0.62;;;;;14.70;1.00;;;;;;2264614;61;1258;-88
2021/04/20 00:03:26;8910.00;0.03;16.06;0.00;0.00;0.62;;;;;14.50;1.00;;;;;;2261350;61;2005;-89
2021/04/20 00:05:52;63168.00;0.21;109.95;0.00;0.00;0.62;;;;;14.70;1.00;;;;;;2268441;61;967;-89
2021/04/20 00:08:20;92911.00;0.31;161.33;24786.00;0.08;43.56;;;;;13.80;1.00;;;;;;2268438;61;1010;-89
2021/04/20 00:10:46;81084.00;0.27;140.91;0.00;0.00;0.62;;;;;13.50;1.00;;;;;;2264650;61;1366;-89
2021/04/20 00:13:13;0.00;0.00;0.62;0.00;0.00;0.62;;;;;13.40;1.00;;;;;;2268440;61;953;-89
2021/04/20 00:15:39;0.00;0.00;0.62;0.00;0.00;0.62;;;;;13.70;1.00;;;;;;2261390;61;969;-89
2021/04/20 00:18:07;202373.00;0.67;350.01;6076.00;0.02;11.15;;;;;13.70;1.00;;;;;;2268400;61;981;-89
2021/04/20 00:20:35;35644.00;0.12;62.35;0.00;0.00;0.62;;;;;13.30;1.00;;;;;;2268356;61;1284;-89
2021/04/20 00:23:04;0.00;0.00;0.62;0.00;0.00;0.62;;;;;13.40;1.00;;;;;;2264637;61;2010;-89
2021/04/20 00:25:31;8532.00;0.03;15.41;0.00;0.00;0.62;;;;;13.80;1.00;;;;;;2263858;61;924;-90
2021/04/20 00:27:57;88541.00;0.30;153.79;0.00;0.00;0.62;;;;;14.20;1.00;;;;;;2260478;61;992;-90
2021/04/20 00:30:24;0.00;0.00;0.62;0.00;0.00;0.62;;;;;14.20;1.00;;;;;;2260492;61;1362;-90
2021/04/20 00:32:51;18276.00;0.06;32.28;0.00;0.00;0.62;;;;;14.20;1.00;;;;;;2263899;61;990;-90
2021/04/20 00:35:17;5049.00;0.02;9.37;0.00;0.00;0.62;;;;;13.90;1.00;;;;;;2260544;61;982;-89
2021/04/20 00:37:44;0.00;0.00;0.62;0.00;0.00;0.62;;;;;14.10;1.00;;;;;;2260522;61;960;-90
2021/04/20 00:40:14;13789.00;0.05;24.51;0.00;0.00;0.62;;;;;14.30;1.00;;;;;;2263841;61;1426;-89
2021/04/20 00:42:50;82925.00;0.28;144.09;0.00;0.00;0.62;;;;;14.60;1.00;;;;;;2261038;61;1912;-90
2021/04/20 00:45:18;165963.00;0.55;287.31;0.00;0.00;0.62;;;;;14.70;1.00;;;;;;2268379;61;939;-90
2021/04/20 00:47:45;0.00;0.00;0.62;0.00;0.00;0.62;;;;;14.70;1.00;;;;;;2263949;61;963;-89
2021/04/20 00:50:13;0.00;0.00;0.62;0.00;0.00;0.62;;;;;15.00;1.00;;;;;;2261101;61;1349;-90
2021/04/20 00:52:40;0.00;0.00;0.62;0.00;0.00;0.62;;;;;15.10;1.00;;;;;;2261136;61;991;-90
2021/04/20 00:55:08;31302.00;0.10;54.84;0.00;0.00;0.62;;;;;15.10;1.00;;;;;;2264524;61;992;-89
2021/04/20 00:57:35;5931.00;0.02;10.90;0.00;0.00;0.62;;;;;14.70;1.00;;;;;;2264470;61;1027;-89
2021/04/20 01:00:05;23150.00;0.08;40.72;0.00;0.00;0.62;;;;;14.60;1.00;;;;;;2264487;61;1028;-89
2021/04/20 01:02:31;45842.00;0.15;79.99;0.00;0.00;0.62;;;;;14.60;1.00;;;;;;2264479;61;1983;-89
2021/04/20 01:04:58;24466.00;0.08;43.00;0.00;0.00;0.62;;;;;14.70;1.00;;;;;;2258520;61;1021;-90
2021/04/20 01:07:25;47525.00;0.16;82.91;0.00;0.00;0.62;;;;;15.00;1.00;;;;;;2268951;61;1045;-90
2021/04/20 01:09:53;104253.00;0.35;180.91;0.00;0.00;0.62;;;;;15.00;1.00;;;;;;2268962;61;1050;-91
2021/04/20 01:12:19;16743.00;0.06;29.63;0.00;0.00;0.62;;;;;15.00;1.00;;;;;;2268902;61;1338;-90
2021/04/20 01:14:46;55021.00;0.18;95.87;0.00;0.00;0.62;;;;;15.00;1.00;;;;;;2265186;61;1006;-91
2021/04/20 01:17:14;48237.00;0.16;84.14;0.00;0.00;0.62;;;;;15.10;1.00;;;;;;2268933;61;990;-89
2021/04/20 01:19:44;60925.00;0.20;106.08;0.00;0.00;0.62;;;;;14.80;1.00;;;;;;2265134;61;1021;-90
2021/04/20 01:22:14;23732.00;0.08;41.73;0.00;0.00;0.62;;;;;14.40;1.00;;;;;;2265098;61;1924;-90
2021/04/20 01:24:41;0.00;0.00;0.62;0.00;0.00;0.62;;;;;14.20;1.00;;;;;;2265180;61;1014;-90
2021/04/20 01:27:08;8078.00;0.03;14.62;0.00;0.00;0.62;;;;;14.00;1.00;;;;;;2265161;61;970;-89
2021/04/20 01:29:34;0.00;0.00;0.62;0.00;0.00;0.62;;;;;14.10;1.00;;;;;;2268914;61;1024;-90
2021/04/20 01:32:01;0.00;0.00;0.62;0.00;0.00;0.62;;;;;14.40;1.00;;;;;;2265092;61;1358;-90
2021/04/20 01:34:28;55744.00;0.19;97.12;0.00;0.00;0.62;;;;;14.50;1.00;;;;;;2265132;61;1030;-90
2021/04/20 01:36:55;14725.00;0.05;26.13;0.00;0.00;0.62;;;;;14.30;1.00;;;;;;2265091;61;1051;-89
2021/04/20 01:39:21;4440.00;0.01;8.32;0.00;0.00;0.62;;;;;13.90;1.00;;;;;;2268907;61;1105;-90
2021/04/20 01:41:50;0.00;0.00;0.62;0.00;0.00;0.62;;;;;13.20;1.00;;;;;;2268563;61;1368;-86
2021/04/20 01:44:17;32788.00;0.11;57.41;0.00;0.00;0.62;;;;;13.00;1.00;;;;;;2268824;61;1936;-88
2021/04/20 01:46:44;0.00;0.00;0.62;0.00;0.00;0.62;;;;;13.30;1.00;;;;;;2268822;61;1016;-88
2021/04/20 01:49:10;23208.00;0.08;40.82;0.00;0.00;0.62;;;;;13.30;1.00;;;;;;2261783;61;974;-88
2021/04/20 01:51:39;55019.00;0.18;95.87;0.00;0.00;0.62;;;;;13.10;1.00;;;;;;2264986;61;1324;-88
2021/04/20 01:54:06;131324.00;0.44;227.61;20139.00;0.07;35.51;;;;;13.20;1.00;;;;;;2268822;61;938;-88
2021/04/20 01:56:33;0.00;0.00;0.62;0.00;0.00;0.62;;;;;12.50;1.00;;;;;;2268826;61;1016;-89
2021/04/20 01:59:01;0.00;0.00;0.62;0.00;0.00;0.62;;;;;12.10;1.00;;;;;;2261708;61;995;-87
2021/04/20 02:01:29;0.00;0.00;0.62;0.00;0.00;0.62;;;;;12.60;1.00;;;;;;2264184;61;1195;-87
2021/04/20 02:03:56;0.00;0.00;0.62;0.00;0.00;0.62;;;;;12.90;1.00;;;;;;2264155;61;2004;-88
2021/04/20 02:06:25;0.00;0.00;0.62;0.00;0.00;0.62;;;;;13.50;1.00;;;;;;2264305;61;937;-86
2021/04/20 02:08:52;0.00;0.00;0.62;0.00;0.00;0.62;;;;;13.60;1.00;;;;;;2264285;61;978;-88
2021/04/20 02:11:21;40233.00;0.13;70.29;0.00;0.00;0.62;;;;;13.80;1.00;;;;;;2264259;61;1416;-87
2021/04/20 02:13:48;0.00;0.00;0.62;0.00;0.00;0.62;;;;;13.80;1.00;;;;;;2257573;61;975;-87
2021/04/20 02:16:17;110183.00;0.37;191.15;12829.00;0.04;22.85;;;;;13.50;1.00;;;;;;2264196;61;1019;-87
2021/04/20 02:18:45;37159.00;0.12;64.97;0.00;0.00;0.62;;;;;13.60;1.00;;;;;;2261643;61;997;-88
2021/04/20 02:21:14;92878.00;0.31;161.28;0.00;0.00;0.62;;;;;13.90;1.00;;;;;;2264152;61;1407;-88
2021/04/20 02:23:42;0.00;0.00;0.62;0.00;0.00;0.62;;;;;13.70;1.00;;;;;;2260100;61;1918;-88
2021/04/20 02:26:11;25228.00;0.08;44.32;0.00;0.00;0.62;;;;;13.60;1.00;;;;;;2256885;61;1032;-87
2021/04/20 02:28:38;170809.00;0.57;295.66;0.00;0.00;0.62;;;;;13.10;1.00;;;;;;2253578;61;1000;-87
2021/04/20 02:31:07;0.00;0.00;0.62;0.00;0.00;0.62;;;;;12.60;1.00;;;;;;2260170;61;1440;-88
2021/04/20 02:33:35;20899.00;0.07;36.83;0.00;0.00;0.62;;;;;12.30;1.00;;;;;;2260113;61;1000;-89
2021/04/20 02:36:04;164824.00;0.55;285.35;91840.00;0.31;159.48;;;;;11.80;1.00;;;;;;2256681;61;993;-87
2021/04/20 02:38:31;169002.00;0.56;292.55;79888.00;0.27;138.84;;;;;11.80;1.00;;;;;;2257594;61;950;-88
2021/04/20 02:40:59;167317.00;0.56;289.64;81829.00;0.27;142.20;;;;;11.60;1.00;;;;;;2258330;61;1283;-87
2021/04/20 02:43:26;213840.00;0.71;369.74;79636.00;0.27;138.41;;;;;11.90;1.00;;;;;;2264943;61;2010;-88
2021/04/20 02:45:55;232492.00;0.77;401.84;83051.00;0.28;144.31;;;;;12.60;1.00;;;;;;2264931;61;1067;-87
2021/04/20 02:48:22;168889.00;0.56;292.35;84075.00;0.28;146.08;;;;;12.80;1.00;;;;;;2264117;61;935;-88
2021/04/20 02:50:52;253771.00;0.85;438.44;69369.00;0.23;120.67;;;;;13.10;1.00;;;;;;2264164;61;1310;-87
2021/04/20 02:53:20;183991.00;0.61;318.36;81914.00;0.27;142.34;;;;;13.20;1.00;;;;;;2260767;61;998;-88
2021/04/20 02:55:47;169390.00;0.56;293.22;87193.00;0.29;151.46;;;;;13.20;1.00;;;;;;2264034;61;1052;-87
2021/04/20 02:58:16;222850.00;0.74;385.25;79160.00;0.26;137.59;;;;;13.20;1.00;;;;;;2264163;61;1183;-88
2021/04/20 03:00:45;228130.00;0.76;394.33;84643.00;0.28;147.06;;;;;13.30;1.00;;;;;;2264110;61;1318;-89
2021/04/20 03:03:16;174847.00;0.58;302.62;77484.00;0.26;134.69;;;;;13.20;1.00;;;;;;2264004;61;1993;-88
2021/04/20 03:05:43;256426.00;0.85;443.00;79567.00;0.27;138.29;;;;;13.20;1.00;;;;;;2261583;61;990;-88
2021/04/20 03:08:11;253972.00;0.85;438.78;82544.00;0.28;143.43;;;;;13.00;1.00;;;;;;2264851;61;960;-88
2021/04/20 03:10:41;308083.00;1.03;531.81;92315.00;0.31;160.30;;;;;13.10;1.00;;;;;;2264680;61;1461;-87
2021/04/20 03:13:08;191872.00;0.64;331.93;79931.00;0.27;138.92;;;;;13.40;1.00;;;;;;2268551;61;991;-88
2021/04/20 03:15:36;338723.00;1.13;584.48;92278.00;0.31;160.24;;;;;13.30;1.00;;;;;;2268598;61;1104;-88
2021/04/20 03:18:05;172367.00;0.57;298.34;90549.00;0.30;157.26;;;;;13.20;1.00;;;;;;2264857;61;999;-88
2021/04/20 03:20:34;198367.00;0.66;343.11;86783.00;0.29;150.75;;;;;13.00;1.00;;;;;;2264768;61;1365;-87
2021/04/20 03:23:01;194379.00;0.65;336.25;87135.00;0.29;151.36;;;;;13.00;1.00;;;;;;2264720;61;1927;-87
2021/04/20 03:25:33;224663.00;0.75;388.37;87592.00;0.29;152.15;;;;;13.20;1.00;;;;;;2268530;61;1064;-87
2021/04/20 03:28:01;234223.00;0.78;404.81;92403.00;0.31;160.46;;;;;12.80;1.00;;;;;;2264740;61;1066;-88
2021/04/20 03:30:29;31889.00;0.11;55.85;0.00;0.00;0.62;;;;;12.10;1.00;;;;;;2264708;61;1353;-88
2021/04/20 03:33:07;0.00;0.00;0.62;0.00;0.00;0.62;;;;;12.20;1.00;;;;;;2263996;61;927;-88
2021/04/20 03:35:41;35980.00;0.12;62.93;0.00;0.00;0.62;;;;;12.30;1.00;;;;;;2263945;61;1006;-87
2021/04/20 03:38:13;69825.00;0.23;121.46;0.00;0.00;0.62;;;;;12.00;1.00;;;;;;2260669;61;978;-87
2021/04/20 03:40:49;48229.00;0.16;84.12;0.00;0.00;0.62;;;;;11.00;1.00;;;;;;2260595;61;1381;-88
2021/04/20 03:43:20;0.00;0.00;0.62;0.00;0.00;0.62;;;;;10.40;1.00;;;;;;2260574;61;2036;-87
2021/04/20 03:45:51;3855.00;0.01;7.30;0.00;0.00;0.62;;;;;10.30;1.00;;;;;;2264014;61;983;-88
2021/04/20 03:48:24;23508.00;0.08;41.34;0.00;0.00;0.62;;;;;10.00;1.00;;;;;;2257374;61;1013;-87
2021/04/20 03:50:56;0.00;0.00;0.62;0.00;0.00;0.62;;;;;10.20;1.00;;;;;;2264722;61;1478;-88
2021/04/20 03:53:25;54477.00;0.18;94.93;0.00;0.00;0.62;;;;;10.30;1.00;;;;;;2264693;61;1061;-88
2021/04/20 03:55:54;0.00;0.00;0.62;0.00;0.00;0.62;;;;;10.80;1.00;;;;;;2264713;61;963;-87
2021/04/20 03:58:23;0.00;0.00;0.62;0.00;0.00;0.62;;;;;11.30;1.00;;;;;;2268480;61;981;-87
2021/04/20 04:00:52;0.00;0.00;0.62;0.00;0.00;0.62;;;;;11.50;1.00;;;;;;2264686;61;1333;-87
2021/04/20 04:03:24;8237.00;0.03;14.89;0.00;0.00;0.62;;;;;10.70;1.00;;;;;;2264604;61;1986;-89
2021/04/20 04:05:52;10675.00;0.04;19.12;0.00;0.00;0.62;;;;;10.50;1.00;;;;;;2264688;61;992;-87
2021/04/20 04:08:20;14252.00;0.05;25.32;0.00;0.00;0.62;;;;;11.20;1.00;;;;;;2268426;61;1084;-87
2021/04/20 04:10:52;53940.00;0.18;94.00;0.00;0.00;0.62;;;;;10.90;1.00;;;;;;2268397;61;1353;-88
2021/04/20 04:13:24;11333.00;0.04;20.26;0.00;0.00;0.62;;;;;10.10;1.00;;;;;;2259870;61;1017;-87
2021/04/20 04:21:22;4887.00;0.02;9.09;0.00;0.00;0.62;;;;;10.50;1.00;;;;;;2267860;61;1435;-87
2021/04/20 04:23:54;421844.00;1.41;727.36;60284.00;0.20;104.97;;;;;10.10;1.00;;;;;;2255730;61;1956;-88
2021/04/20 04:26:25;298078.00;0.99;514.62;0.00;0.00;0.62;;;;;9.90;1.00;;;;;;2261100;61;1005;-87
2021/04/20 04:28:57;353341.00;1.18;609.60;0.00;0.00;0.62;;;;;10.20;1.00;;;;;;2257846;61;1046;-86
2021/04/20 04:31:25;364581.00;1.22;628.92;0.00;0.00;0.62;;;;;11.10;1.00;;;;;;2264819;61;1429;-89
2021/04/20 04:33:52;320087.00;1.07;552.45;0.00;0.00;0.62;;;;;11.20;1.00;;;;;;2256271;61;1039;-88
2021/04/20 04:36:20;306003.00;1.02;528.24;0.00;0.00;0.62;;;;;11.70;1.00;;;;;;2252975;61;979;-87
2021/04/20 04:38:46;215140.00;0.72;371.98;0.00;0.00;0.62;;;;;12.00;1.00;;;;;;2256356;61;938;-87
2021/04/20 04:41:13;223505.00;0.75;386.37;0.00;0.00;0.62;;;;;12.20;1.00;;;;;;2256290;61;1355;-87
2021/04/20 04:43:42;588275.00;1.96;1013.98;83242.00;0.28;144.64;;;;;12.30;1.00;;;;;;2249692;61;1994;-87
2021/04/20 04:46:10;570102.00;1.90;982.62;80887.00;0.27;140.57;;;;;12.20;1.00;;;;;;2249599;61;1036;-88
2021/04/20 04:48:37;665658.00;2.22;1147.74;85452.00;0.28;148.45;;;;;11.60;1.00;;;;;;2249686;61;996;-87
2021/04/20 04:51:05;420723.00;1.40;725.43;88545.00;0.30;153.80;;;;;10.70;1.00;;;;;;2257533;61;1320;-88
2021/04/20 04:53:33;384392.00;1.28;662.97;90347.00;0.30;156.91;;;;;10.90;1.00;;;;;;2261053;61;953;-88
2021/04/20 04:56:03;497437.00;1.66;857.41;53778.00;0.18;93.72;;;;;11.50;1.00;;;;;;2264732;61;1023;-87
2021/04/20 04:58:31;507110.00;1.69;874.07;37497.00;0.12;65.56;;;;;11.90;1.00;;;;;;2264765;61;922;-87
2021/04/20 05:00:59;443423.00;1.48;764.47;0.00;0.00;0.62;;;;;11.80;1.00;;;;;;2257618;61;1378;-88
2021/04/20 05:03:27;346906.00;1.16;598.54;0.00;0.00;0.62;;;;;10.60;1.00;;;;;;2257671;61;1916;-87
2021/04/20 05:05:56;428236.00;1.43;738.35;0.00;0.00;0.62;;;;;10.20;1.00;;;;;;2260957;61;970;-88
2021/04/20 05:08:23;309994.00;1.03;535.10;0.00;0.00;0.62;;;;;9.70;1.00;;;;;;2257635;61;930;-87
2021/04/20 05:10:50;300262.00;1.00;518.37;0.00;0.00;0.62;;;;;9.30;1.00;;;;;;2264643;61;1399;-87
2021/04/20 05:13:17;337810.00;1.13;582.91;0.00;0.00;0.62;;;;;9.00;1.00;;;;;;2260890;61;1030;-87
2021/04/20 05:15:44;306814.00;1.02;529.63;0.00;0.00;0.62;;;;;9.20;1.00;;;;;;2264711;61;914;-87
2021/04/20 05:18:11;311391.00;1.04;537.50;0.00;0.00;0.62;;;;;9.40;1.00;;;;;;2256081;61;974;-88
2021/04/20 05:20:41;296296.00;0.99;511.55;0.00;0.00;0.62;;;;;9.20;1.00;;;;;;2252759;61;1428;-86
2021/04/20 05:23:08;344450.00;1.15;594.32;0.00;0.00;0.62;;;;;8.80;1.00;;;;;;2249401;61;2004;-86
2021/04/20 05:25:35;247800.00;0.83;428.17;0.00;0.00;0.62;;;;;9.00;1.00;;;;;;2252029;61;997;-86
2021/04/20 05:28:02;327683.00;1.09;565.50;0.00;0.00;0.62;;;;;8.70;1.00;;;;;;2245540;61;1049;-88
2021/04/20 05:30:29;218679.00;0.73;378.07;0.00;0.00;0.62;;;;;8.40;1.00;;;;;;2243990;61;1382;-86
2021/04/20 05:32:59;452270.00;1.51;779.69;0.00;0.00;0.62;;;;;8.50;1.00;;;;;;2244004;61;1052;-86
2021/04/20 05:35:25;345999.00;1.15;596.98;0.00;0.00;0.62;;;;;8.50;1.00;;;;;;2242073;61;955;-86
2021/04/20 05:37:53;306170.00;1.02;528.53;0.00;0.00;0.62;;;;;8.90;1.00;;;;;;2248717;61;1104;-86
2021/04/20 05:40:22;347469.00;1.16;599.51;0.00;0.00;0.62;;;;;8.80;1.00;;;;;;2248628;61;1461;-87
2021/04/20 05:42:51;444068.00;1.48;765.58;0.00;0.00;0.62;;;;;9.40;1.00;;;;;;2249275;61;1997;-84
2021/04/20 05:45:19;377192.00;1.26;650.60;0.00;0.00;0.62;;;;;10.00;1.00;;;;;;2256132;61;1177;-87
2021/04/20 05:47:48;220967.00;0.74;382.01;0.00;0.00;0.62;;;;;10.10;1.00;;;;;;2257570;61;1043;-87
2021/04/20 05:50:20;393038.00;1.31;677.84;0.00;0.00;0.62;;;;;9.90;1.00;;;;;;2264239;61;1358;-87
2021/04/20 05:52:46;213023.00;0.71;368.34;0.00;0.00;0.62;;;;;9.50;1.00;;;;;;2264546;61;927;-87
2021/04/20 05:55:15;333855.00;1.11;576.11;0.00;0.00;0.62;;;;;9.40;1.00;;;;;;2257505;61;1005;-87
2021/04/20 05:57:45;251702.00;0.84;434.88;0.00;0.00;0.62;;;;;9.40;1.00;;;;;;2264422;61;1036;-86
2021/04/20 06:00:13;110919.00;0.37;192.42;0.00;0.00;0.62;;;;;9.90;1.00;;;;;;2264453;61;1430;-87
2021/04/20 06:02:40;142710.00;0.48;247.24;0.00;0.00;0.62;;;;;9.90;1.00;;;;;;2257469;61;1997;-86
2021/04/20 06:05:11;212904.00;0.71;368.13;0.00;0.00;0.62;;;;;9.40;1.00;;;;;;2264431;61;988;-87
2021/04/20 06:07:43;29684.00;0.10;52.04;0.00;0.00;0.62;;;;;9.50;1.00;;;;;;2257501;61;982;-88
2021/04/20 06:10:12;35295.00;0.12;61.75;0.00;0.00;0.62;;;;;9.30;1.00;;;;;;2264551;61;963;-86
2021/04/20 06:12:40;34966.00;0.12;61.18;0.00;0.00;0.62;;;;;9.20;1.00;;;;;;2264325;61;1200;-87
2021/04/20 06:15:09;60665.00;0.20;105.63;0.00;0.00;0.62;;;;;9.30;1.00;;;;;;2259919;61;1029;-87
2021/04/20 06:17:38;20351.00;0.07;35.88;0.00;0.00;0.62;;;;;9.20;1.00;;;;;;2259979;61;1019;-88
2021/04/20 06:20:07;26142.00;0.09;45.90;0.00;0.00;0.62;;;;;9.20;1.00;;;;;;2259834;61;1123;-86
2021/04/20 06:22:36;9517.00;0.03;17.11;0.00;0.00;0.62;;;;;9.80;1.00;;;;;;2256590;61;1994;-85
2021/04/20 06:25:03;58742.00;0.20;102.30;0.00;0.00;0.62;;;;;10.60;1.00;;;;;;2259828;61;987;-87
2021/04/20 06:27:30;33537.00;0.11;58.70;0.00;0.00;0.62;;;;;11.40;1.00;;;;;;2256609;61;949;-86
2021/04/20 06:29:58;60409.00;0.20;105.18;0.00;0.00;0.62;;;;;10.80;1.00;;;;;;2259793;61;1095;-87
2021/04/20 06:32:26;235345.00;0.78;406.74;0.00;0.00;0.62;;;;;11.50;1.00;;;;;;2260449;61;1563;-87
2021/04/20 06:34:53;3570.00;0.01;6.81;0.00;0.00;0.62;;;;;11.60;1.00;;;;;;2257342;61;960;-86
2021/04/20 06:37:20;71157.00;0.24;123.76;0.00;0.00;0.62;;;;;11.60;1.00;;;;;;2260674;61;986;-86
2021/04/20 06:39:47;18986.00;0.06;33.51;0.00;0.00;0.62;;;;;11.90;1.00;;;;;;2257284;61;997;-87
2021/04/20 06:42:20;42713.00;0.14;74.58;0.00;0.00;0.62;;;;;12.10;1.00;;;;;;2264375;61;1445;-87
2021/04/20 06:44:56;34309.00;0.11;60.04;0.00;0.00;0.62;;;;;11.80;1.00;;;;;;2260573;61;2023;-87
2021/04/20 06:47:30;0.00;0.00;0.62;0.00;0.00;0.62;;;;;11.80;1.00;;;;;;2257308;61;982;-89
2021/04/20 06:50:02;0.00;0.00;0.62;0.00;0.00;0.62;;;;;11.90;1.00;;;;;;2257336;61;975;-88
2021/04/20 06:52:33;60269.00;0.20;104.94;0.00;0.00;0.62;;;;;12.30;1.00;;;;;;2257242;61;1499;-89
2021/04/20 06:55:04;57187.00;0.19;99.61;0.00;0.00;0.62;;;;;12.20;1.00;;;;;;2264333;61;1030;-87
2021/04/20 06:57:43;33291.00;0.11;58.28;0.00;0.00;0.62;;;;;12.10;1.00;;;;;;2260538;61;1036;-88
2021/04/20 07:00:14;124518.00;0.42;215.88;0.00;0.00;0.62;;;;;12.20;1.00;;;;;;2260514;61;992;-88
2021/04/20 07:02:50;104134.00;0.35;180.71;0.00;0.00;0.62;;;;;12.40;1.00;;;;;;2257210;61;1990;-88
2021/04/20 07:05:23;25648.00;0.09;45.05;0.00;0.00;0.62;;;;;12.90;1.00;;;;;;2264272;61;984;-87
2021/04/20 07:08:08;60775.00;0.20;105.82;0.00;0.00;0.62;;;;;12.10;1.00;;;;;;2253966;61;952;-86
2021/04/20 07:10:37;89034.00;0.30;154.64;0.00;0.00;0.62;;;;;12.00;1.00;;;;;;2257183;61;1473;-89
2021/04/20 07:13:07;14123.00;0.05;25.09;0.00;0.00;0.62;;;;;13.00;1.00;;;;;;2264312;61;1034;-87
2021/04/20 07:15:37;28969.00;0.10;50.80;0.00;0.00;0.62;;;;;13.10;1.00;;;;;;2257157;61;1024;-88
2021/04/20 07:20:51;13228.00;0.04;23.54;0.00;0.00;0.62;;;;;13.40;1.00;;;;;;2265870;61;1423;-87
2021/04/20 07:23:37;41467.00;0.14;72.43;0.00;0.00;0.62;;;;;12.80;1.00;;;;;;2264236;61;1919;-87
2021/04/20 07:26:30;63660.00;0.21;110.80;0.00;0.00;0.62;;;;;13.10;1.00;;;;;;2264216;61;732;-87
2021/04/20 07:29:10;29216.00;0.10;51.23;0.00;0.00;0.62;;;;;13.10;1.00;;;;;;2259624;61;942;-87
2021/04/20 07:31:48;87649.00;0.29;152.25;0.00;0.00;0.62;;;;;13.90;1.00;;;;;;2251616;61;1365;-88
2021/04/20 07:34:21;171283.00;0.57;296.48;0.00;0.00;0.62;;;;;13.80;1.00;;;;;;2251689;61;1016;-88
2021/04/20 07:37:05;399633.00;1.33;689.17;0.00;0.00;0.62;;;;;13.90;1.00;;;;;;2251728;61;1032;-87
2021/04/20 07:39:39;196731.00;0.66;340.30;0.00;0.00;0.62;;;;;14.20;1.00;;;;;;2251745;61;1016;-88
2021/04/20 07:42:21;847647.00;2.83;1464.35;269292.00;0.90;465.13;;;;;13.90;1.00;;;;;;2247631;61;1349;-87
2021/04/20 07:44:57;661355.00;2.20;1140.29;103715.00;0.35;179.98;;;;;14.00;1.00;;;;;;2247638;61;1944;-88
2021/04/20 07:47:32;373258.00;1.24;643.84;83010.00;0.28;144.24;;;;;14.20;1.00;;;;;;2243858;61;958;-86
2021/04/20 07:50:03;406932.00;1.36;701.72;86102.00;0.29;149.58;;;;;14.20;1.00;;;;;;2259545;61;994;-88
2021/04/20 07:52:36;441019.00;1.47;760.34;86882.00;0.29;150.92;;;;;14.50;1.00;;;;;;2256987;61;1371;-88
2021/04/20 07:55:11;613880.00;2.05;1058.19;92368.00;0.31;160.40;;;;;14.90;1.00;;;;;;2263687;61;1024;-88
2021/04/20 07:57:41;491368.00;1.64;846.96;89135.00;0.30;154.81;;;;;15.00;1.00;;;;;;2254552;61;1008;-88
2021/04/20 08:00:13;438533.00;1.46;756.06;86511.00;0.29;150.28;;;;;15.20;1.00;;;;;;2256869;61;970;-87
2021/04/20 08:02:45;534959.00;1.78;922.04;83306.00;0.28;144.75;;;;;15.50;1.00;;;;;;2255257;61;992;-88
2021/04/20 08:05:19;432644.00;1.44;745.93;80407.00;0.27;139.74;;;;;15.60;1.00;;;;;;2260953;61;1166;-88
2021/04/20 08:07:56;474551.00;1.58;818.02;84078.00;0.28;146.08;;;;;16.10;1.00;;;;;;2260936;61;1028;-89
2021/04/20 08:10:29;301666.00;1.01;520.78;79351.00;0.26;137.92;;;;;16.80;1.00;;;;;;2257607;61;1480;-89
2021/04/20 08:13:04;305277.00;1.02;526.99;86978.00;0.29;151.09;;;;;17.10;1.00;;;;;;2260979;61;977;-88
2021/04/20 08:15:37;158816.00;0.53;275.00;0.00;0.00;0.62;;;;;17.30;1.00;;;;;;2257578;61;1040;-90
2021/04/20 08:18:08;281086.00;0.94;485.40;0.00;0.00;0.62;;;;;17.20;1.00;;;;;;2256616;61;954;-88
2021/04/20 08:20:37;227299.00;0.76;392.90;0.00;0.00;0.62;;;;;17.50;1.00;;;;;;2260894;61;1446;-88
2021/04/20 08:23:07;384689.00;1.28;663.49;0.00;0.00;0.62;;;;;17.50;1.00;;;;;;2256756;61;1984;-89
2021/04/20 08:25:38;178796.00;0.60;309.42;28685.00;0.10;50.31;;;;;17.90;1.00;;;;;;2256862;61;933;-88
2021/04/20 08:28:20;205466.00;0.68;355.33;0.00;0.00;0.62;;;;;18.40;1.00;;;;;;2250243;61;1022;-89
2021/04/20 08:30:53;187697.00;0.63;324.74;0.00;0.00;0.62;;;;;18.60;1.00;;;;;;2250190;61;1334;-89
2021/04/20 08:33:26;189258.00;0.63;327.43;0.00;0.00;0.62;;;;;18.70;1.00;;;;;;2256858;61;1040;-89
2021/04/20 08:35:56;51972.00;0.17;90.60;0.00;0.00;0.62;;;;;18.60;1.00;;;;;;2252068;61;1082;-88
2021/04/20 08:38:35;509574.00;1.70;878.31;129549.00;0.43;224.55;;;;;18.60;1.00;;;;;;2256809;61;1076;-89
2021/04/20 08:41:09;59204.00;0.20;103.10;0.00;0.00;0.62;;;;;18.70;1.00;;;;;;2258735;61;1328;-89
2021/04/20 08:43:46;96808.00;0.32;168.06;0.00;0.00;0.62;;;;;18.70;1.00;;;;;;2254179;61;1932;-89
2021/04/20 08:46:28;149893.00;0.50;259.62;0.00;0.00;0.62;;;;;18.50;1.00;;;;;;2260823;61;1090;-89
2021/04/20 08:49:01;110152.00;0.37;191.09;0.00;0.00;0.62;;;;;18.40;1.00;;;;;;2260777;61;1067;-90
2021/04/20 08:51:31;45414.00;0.15;79.25;0.00;0.00;0.62;;;;;18.00;1.00;;;;;;2254075;61;1458;-89
2021/04/20 08:54:20;136337.00;0.45;236.26;0.00;0.00;0.62;;;;;18.50;1.00;;;;;;2263192;61;1018;-88
2021/04/20 08:56:59;62549.00;0.21;108.88;0.00;0.00;0.62;;;;;18.40;1.00;;;;;;2264803;61;1006;-90
2021/04/20 08:59:39;146129.00;0.49;253.14;46231.00;0.15;80.67;;;;;17.90;1.00;;;;;;2261560;61;994;-89
2021/04/20 09:02:23;426185.00;1.42;734.83;25495.00;0.08;44.78;;;;;17.80;1.00;;;;;;2265261;61;1432;-88
2021/04/20 09:05:13;36097.00;0.12;63.14;0.00;0.00;0.62;;;;;18.20;1.00;;;;;;2265229;61;1991;-88
2021/04/20 09:07:52;77195.00;0.26;134.19;0.00;0.00;0.62;;;;;17.80;1.00;;;;;;2265222;61;1002;-90
2021/04/20 09:10:25;125801.00;0.42;218.09;0.00;0.00;0.62;;;;;17.90;1.00;;;;;;2260730;61;1474;-89
2021/04/20 09:12:58;675862.00;2.25;1165.41;38841.00;0.13;67.88;;;;;18.10;1.00;;;;;;2264622;61;991;-89
2021/04/20 09:15:29;200847.00;0.67;347.38;0.00;0.00;0.62;;;;;18.20;1.00;;;;;;2264516;61;1030;-89
2021/04/20 09:18:04;167017.00;0.56;289.13;0.00;0.00;0.62;;;;;17.50;1.00;;;;;;2264519;61;946;-88
2021/04/20 09:20:38;306825.00;1.02;529.65;0.00;0.00;0.62;;;;;17.30;1.00;;;;;;2260767;61;1459;-89
2021/04/20 09:25:45;114701.00;0.38;198.94;0.00;0.00;0.62;;;;;16.70;1.00;;;;;;2267108;61;1343;-90
2021/04/20 09:28:20;304982.00;1.02;526.48;0.00;0.00;0.62;;;;;16.70;1.00;;;;;;2265197;61;457;-90
2021/04/20 09:30:52;286330.00;0.95;494.42;23895.00;0.08;42.01;;;;;16.90;1.00;;;;;;2265230;61;1477;-90
2021/04/20 09:33:22;80841.00;0.27;140.49;0.00;0.00;0.62;;;;;17.10;1.00;;;;;;2260786;61;853;-89
2021/04/20 09:35:51;0.00;0.00;0.62;0.00;0.00;0.62;;;;;17.10;1.00;;;;;;2252802;61;945;-90
2021/04/20 09:38:20;163246.00;0.54;282.63;0.00;0.00;0.62;;;;;17.30;1.00;;;;;;2251974;61;1047;-89
2021/04/20 09:40:49;113390.00;0.38;196.68;0.00;0.00;0.62;;;;;17.30;1.00;;;;;;2245465;61;1349;-91
2021/04/20 09:43:30;115087.00;0.38;199.61;0.00;0.00;0.62;;;;;17.20;1.00;;;;;;2245476;61;1918;-88
2021/04/20 09:48:43;127396.00;0.42;220.84;0.00;0.00;0.62;;;;;17.60;1.00;;;;;;2266977;61;1320;-88
2021/04/20 09:51:16;12232.00;0.04;21.82;0.00;0.00;0.62;;;;;17.60;1.00;;;;;;2264324;61;1450;-89
2021/04/20 09:53:56;35280.00;0.12;61.72;0.00;0.00;0.62;;;;;17.50;1.00;;;;;;2264498;61;1041;-89
2021/04/20 09:56:30;39565.00;0.13;69.14;0.00;0.00;0.62;;;;;16.90;1.00;;;;;;2264500;61;992;-88
2021/04/20 09:58:59;0.00;0.00;0.62;0.00;0.00;0.62;;;;;16.90;1.00;;;;;;2260722;61;1013;-89
2021/04/20 10:01:42;96489.00;0.32;167.51;3261.00;0.01;6.27;;;;;17.00;1.00;;;;;;2264440;61;1334;-90
2021/04/20 10:04:11;0.00;0.00;0.62;0.00;0.00;0.62;;;;;17.10;1.00;;;;;;2260616;61;1912;-87
2021/04/20 10:07:00;19672.00;0.07;34.70;0.00;0.00;0.62;;;;;17.30;1.00;;;;;;2259799;61;1015;-90
2021/04/20 10:09:37;31202.00;0.10;54.66;0.00;0.00;0.62;;;;;17.40;1.00;;;;;;2259942;61;1115;-89
2021/04/20 10:12:23;90549.00;0.30;157.26;14704.00;0.05;26.10;;;;;17.60;1.00;;;;;;2259892;61;1456;-88
2021/04/20 10:15:10;0.00;0.00;0.62;0.00;0.00;0.62;;;;;16.90;1.00;;;;;;2251863;61;951;-88
2021/04/20 10:17:42;2250.00;0.01;4.52;0.00;0.00;0.62;;;;;16.90;1.00;;;;;;2251932;61;1027;-88
2021/04/20 10:20:19;0.00;0.00;0.62;0.00;0.00;0.62;;;;;17.30;1.00;;;;;;2248305;61;1014;-88
2021/04/20 10:22:54;3600.00;0.01;6.86;0.00;0.00;0.62;;;;;17.80;1.00;;;;;;2242128;61;944;-89
2021/04/20 10:25:29;0.00;0.00;0.62;0.00;0.00;0.62;;;;;17.40;1.00;;;;;;2247139;61;992;-88
2021/04/20 10:28:11;29389.00;0.10;51.53;0.00;0.00;0.62;;;;;17.80;1.00;;;;;;2247991;61;942;-88
2021/04/20 10:30:43;33120.00;0.11;57.98;0.00;0.00;0.62;;;;;17.20;1.00;;;;;;2247946;61;1333;-90
2021/04/20 10:33:12;69915.00;0.23;121.61;0.00;0.00;0.62;;;;;17.20;1.00;;;;;;2249638;61;1084;-89